sensor_id;sensor_type;location;lat;lon;timestamp;temperature;humidity
46335;DHT22;32051;48.882;9.210;2023-04-24T07:42:51;12.50;99.90
46335;DHT22;32051;48.882;9.210;2023-04-24T07:45:17;12.40;99.90
46335;DHT22;32051;48.882;9.210;2023-04-24T07:47:43;12.50;99.90
46335;DHT22;32051;48.882;9.210;2023-04-24T07:50:11;12.40;99.90
46335;DHT22;32051;48.882;9.210;2023-04-24T07:52:36;12.50;99.90
46335;DHT22;32051;48.882;9.210;2023-04-24T07:55:02;12.40;99.90
46335;DHT22;32051;48.882;9.210;2023-04-24T07:57:28;12.50;99.90
46335;DHT22;32051;48.882;9.210;2023-04-24T07:59:54;12.40;99.90
46335;DHT22;32051;48.882;9.210;2023-04-24T08:02:20;12.40;99.90
46335;DHT22;32051;48.882;9.210;2023-04-24T08:04:54;12.50;99.90
46335;DHT22;32051;48.882;9.210;2023-04-24T08:07:20;12.50;99.90
46335;DHT22;32051;48.882;9.210;2023-04-24T08:09:46;12.60;99.90
46335;DHT22;32051;48.882;9.210;2023-04-24T08:12:12;12.40;99.90
46335;DHT22;32051;48.882;9.210;2023-04-24T08:14:37;12.30;99.90
46335;DHT22;32051;48.882;9.210;2023-04-24T08:17:03;12.20;99.90
46335;DHT22;32051;48.882;9.210;2023-04-24T08:19:29;12.10;99.90
46335;DHT22;32051;48.882;9.210;2023-04-24T08:21:54;12.30;99.90
46335;DHT22;32051;48.882;9.210;2023-04-24T08:24:20;12.30;99.90
46335;DHT22;32051;48.882;9.210;2023-04-24T08:26:46;12.20;99.90
46335;DHT22;32051;48.882;9.210;2023-04-24T08:29:15;12.10;99.90
46335;DHT22;32051;48.882;9.210;2023-04-24T08:31:41;12.20;99.90
46335;DHT22;32051;48.882;9.210;2023-04-24T08:34:07;12.20;99.90
46335;DHT22;32051;48.882;9.210;2023-04-24T08:36:32;12.40;99.90
46335;DHT22;32051;48.882;9.210;2023-04-24T08:38:59;12.40;99.90
46335;DHT22;32051;48.882;9.210;2023-04-24T08:41:25;12.40;99.90
46335;DHT22;32051;48.882;9.210;2023-04-24T08:43:52;12.40;99.90
46335;DHT22;32051;48.882;9.210;2023-04-24T08:46:19;12.60;99.90
46335;DHT22;32051;48.882;9.210;2023-04-24T08:48:45;12.50;99.90
46335;DHT22;32051;48.882;9.210;2023-04-24T08:51:11;12.70;99.90
46335;DHT22;32051;48.882;9.210;2023-04-24T08:53:37;12.70;99.90
46335;DHT22;32051;48.882;9.210;2023-04-24T08:56:04;12.70;99.90
46335;DHT22;32051;48.882;9.210;2023-04-24T08:58:31;12.60;99.90
46335;DHT22;32051;48.882;9.210;2023-04-24T09:00:57;12.50;99.90
46335;DHT22;32051;48.882;9.210;2023-04-24T09:03:24;12.30;99.90
46335;DHT22;32051;48.882;9.210;2023-04-24T09:05:50;12.40;99.90
46335;DHT22;32051;48.882;9.210;2023-04-24T09:08:19;12.50;99.90
46335;DHT22;32051;48.882;9.210;2023-04-24T09:10:45;12.50;99.90
46335;DHT22;32051;48.882;9.210;2023-04-24T09:13:11;12.60;99.90
46335;DHT22;32051;48.882;9.210;2023-04-24T09:15:40;12.80;99.90
46335;DHT22;32051;48.882;9.210;2023-04-24T09:18:06;13.00;99.90
46335;DHT22;32051;48.882;9.210;2023-04-24T09:20:32;13.30;99.90
46335;DHT22;32051;48.882;9.210;2023-04-24T09:22:58;13.40;99.90
46335;DHT22;32051;48.882;9.210;2023-04-24T09:25:34;13.40;99.90
46335;DHT22;32051;48.882;9.210;2023-04-24T09:28:05;13.00;99.90
46335;DHT22;32051;48.882;9.210;2023-04-24T09:30:32;12.90;99.90
46335;DHT22;32051;48.882;9.210;2023-04-24T09:33:14;12.70;99.90
46335;DHT22;32051;48.882;9.210;2023-04-24T09:35:41;12.60;99.90
46335;DHT22;32051;48.882;9.210;2023-04-24T09:38:08;12.50;99.90
46335;DHT22;32051;48.882;9.210;2023-04-24T09:40:34;12.50;99.90
46335;DHT22;32051;48.882;9.210;2023-04-24T09:45:29;12.50;99.90
46335;DHT22;32051;48.882;9.210;2023-04-24T09:48:00;12.80;99.90
46335;DHT22;32051;48.882;9.210;2023-04-24T09:50:26;12.80;99.90
46335;DHT22;32051;48.882;9.210;2023-04-24T09:52:59;13.00;99.90
46335;DHT22;32051;48.882;9.210;2023-04-24T09:55:26;13.20;99.90
46335;DHT22;32051;48.882;9.210;2023-04-24T09:57:57;13.20;99.90
46335;DHT22;32051;48.882;9.210;2023-04-24T10:00:28;13.10;99.90
46335;DHT22;32051;48.882;9.210;2023-04-24T10:05:26;12.90;99.90
46335;DHT22;32051;48.882;9.210;2023-04-24T10:07:56;12.80;99.90
46335;DHT22;32051;48.882;9.210;2023-04-24T10:10:22;12.90;99.90
46335;DHT22;32051;48.882;9.210;2023-04-24T10:12:49;13.20;99.90
46335;DHT22;32051;48.882;9.210;2023-04-24T10:15:16;13.20;99.90
46335;DHT22;32051;48.882;9.210;2023-04-24T10:17:48;13.20;99.90
46335;DHT22;32051;48.882;9.210;2023-04-24T10:20:22;13.20;99.90
46335;DHT22;32051;48.882;9.210;2023-04-24T10:22:49;13.20;99.90
46335;DHT22;32051;48.882;9.210;2023-04-24T10:25:35;13.00;99.90
46335;DHT22;32051;48.882;9.210;2023-04-24T10:28:02;12.80;99.90
46335;DHT22;32051;48.882;9.210;2023-04-24T10:30:31;12.60;99.90
46335;DHT22;32051;48.882;9.210;2023-04-24T10:33:01;12.40;99.90
46335;DHT22;32051;48.882;9.210;2023-04-24T10:35:30;12.30;99.90
46335;DHT22;32051;48.882;9.210;2023-04-24T11:08:39;13.00;99.90
46335;DHT22;32051;48.882;9.210;2023-04-24T11:11:13;13.00;99.90
46335;DHT22;32051;48.882;9.210;2023-04-24T11:18:59;13.10;99.90
46335;DHT22;32051;48.882;9.210;2023-04-24T11:21:28;13.00;99.90
46335;DHT22;32051;48.882;9.210;2023-04-24T11:23:56;13.10;99.80
46335;DHT22;32051;48.882;9.210;2023-04-24T11:26:23;13.20;99.60
46335;DHT22;32051;48.882;9.210;2023-04-24T11:34:13;14.10;98.10
46335;DHT22;32051;48.882;9.210;2023-04-24T11:36:40;14.10;98.50
46335;DHT22;32051;48.882;9.210;2023-04-24T11:39:08;14.00;98.90
46335;DHT22;32051;48.882;9.210;2023-04-24T11:41:34;14.00;98.60
46335;DHT22;32051;48.882;9.210;2023-04-24T11:44:01;13.90;98.30
46335;DHT22;32051;48.882;9.210;2023-04-24T11:46:29;13.80;98.00
46335;DHT22;32051;48.882;9.210;2023-04-24T11:48:56;13.50;98.50
46335;DHT22;32051;48.882;9.210;2023-04-24T11:51:26;13.30;99.30
46335;DHT22;32051;48.882;9.210;2023-04-24T11:53:53;12.90;99.90
46335;DHT22;32051;48.882;9.210;2023-04-24T11:58:45;12.70;99.90
46335;DHT22;32051;48.882;9.210;2023-04-24T12:01:12;12.80;99.90
46335;DHT22;32051;48.882;9.210;2023-04-24T12:03:38;13.00;99.90
46335;DHT22;32051;48.882;9.210;2023-04-24T12:06:10;12.90;99.90
46335;DHT22;32051;48.882;9.210;2023-04-24T12:08:37;12.90;99.50
46335;DHT22;32051;48.882;9.210;2023-04-24T12:11:04;12.90;99.80
46335;DHT22;32051;48.882;9.210;2023-04-24T12:13:32;13.00;99.90
46335;DHT22;32051;48.882;9.210;2023-04-24T12:15:58;12.90;99.90
46335;DHT22;32051;48.882;9.210;2023-04-24T12:18:24;12.90;99.90
46335;DHT22;32051;48.882;9.210;2023-04-24T12:20:51;12.80;99.90
46335;DHT22;32051;48.882;9.210;2023-04-24T12:23:16;12.60;99.90
46335;DHT22;32051;48.882;9.210;2023-04-24T12:26:00;12.50;99.90
46335;DHT22;32051;48.882;9.210;2023-04-24T13:15:10;14.40;99.90
46335;DHT22;32051;48.882;9.210;2023-04-24T13:17:36;14.40;99.90
46335;DHT22;32051;48.882;9.210;2023-04-24T13:20:02;14.60;99.90
46335;DHT22;32051;48.882;9.210;2023-04-24T13:22:28;14.40;99.90
46335;DHT22;32051;48.882;9.210;2023-04-24T13:24:54;14.00;99.90
46335;DHT22;32051;48.882;9.210;2023-04-24T13:27:20;13.60;99.90
46335;DHT22;32051;48.882;9.210;2023-04-24T13:29:46;13.30;99.90
46335;DHT22;32051;48.882;9.210;2023-04-24T13:34:38;14.10;99.90
46335;DHT22;32051;48.882;9.210;2023-04-24T13:37:04;14.10;99.90
46335;DHT22;32051;48.882;9.210;2023-04-24T13:39:30;14.30;99.90
46335;DHT22;32051;48.882;9.210;2023-04-24T13:41:57;14.50;99.90
46335;DHT22;32051;48.882;9.210;2023-04-24T13:44:23;14.20;99.40
46335;DHT22;32051;48.882;9.210;2023-04-24T13:46:51;14.20;99.90
46335;DHT22;32051;48.882;9.210;2023-04-24T13:49:17;14.00;99.90
46335;DHT22;32051;48.882;9.210;2023-04-24T13:51:43;13.80;99.90
46335;DHT22;32051;48.882;9.210;2023-04-24T13:54:09;13.40;99.90
46335;DHT22;32051;48.882;9.210;2023-04-24T13:56:35;13.30;99.90
46335;DHT22;32051;48.882;9.210;2023-04-24T13:59:01;13.00;99.90
46335;DHT22;32051;48.882;9.210;2023-04-24T14:13:41;13.10;99.90
46335;DHT22;32051;48.882;9.210;2023-04-24T14:16:07;13.20;99.90
46335;DHT22;32051;48.882;9.210;2023-04-24T14:18:32;13.10;99.90
46335;DHT22;32051;48.882;9.210;2023-04-24T14:20:58;12.90;99.90
46335;DHT22;32051;48.882;9.210;2023-04-24T14:23:24;13.00;99.90
46335;DHT22;32051;48.882;9.210;2023-04-24T14:25:50;13.00;99.90
46335;DHT22;32051;48.882;9.210;2023-04-24T14:28:21;13.20;99.90
46335;DHT22;32051;48.882;9.210;2023-04-24T14:30:49;13.30;99.90
46335;DHT22;32051;48.882;9.210;2023-04-24T14:33:16;13.30;99.90
46335;DHT22;32051;48.882;9.210;2023-04-24T14:35:42;13.40;99.90
46335;DHT22;32051;48.882;9.210;2023-04-24T14:38:08;13.20;99.90
46335;DHT22;32051;48.882;9.210;2023-04-24T14:40:34;13.10;99.90
46335;DHT22;32051;48.882;9.210;2023-04-24T14:43:00;13.00;99.90
46335;DHT22;32051;48.882;9.210;2023-04-24T14:45:26;12.90;99.90
46335;DHT22;32051;48.882;9.210;2023-04-24T14:47:53;12.90;99.90
46335;DHT22;32051;48.882;9.210;2023-04-24T14:50:19;12.90;99.90
46335;DHT22;32051;48.882;9.210;2023-04-24T14:52:44;12.90;99.90
46335;DHT22;32051;48.882;9.210;2023-04-24T14:55:10;13.00;99.90
46335;DHT22;32051;48.882;9.210;2023-04-24T14:57:36;13.10;99.90
46335;DHT22;32051;48.882;9.210;2023-04-24T15:00:03;13.30;99.90
46335;DHT22;32051;48.882;9.210;2023-04-24T15:02:32;13.40;99.90
46335;DHT22;32051;48.882;9.210;2023-04-24T15:04:58;13.40;99.70
46335;DHT22;32051;48.882;9.210;2023-04-24T15:07:24;13.30;99.90
46335;DHT22;32051;48.882;9.210;2023-04-24T15:09:50;13.20;99.60
46335;DHT22;32051;48.882;9.210;2023-04-24T15:12:15;13.30;99.90
46335;DHT22;32051;48.882;9.210;2023-04-24T15:14:41;13.10;99.70
46335;DHT22;32051;48.882;9.210;2023-04-24T15:17:07;13.10;99.90
46335;DHT22;32051;48.882;9.210;2023-04-24T15:19:32;13.10;99.90
46335;DHT22;32051;48.882;9.210;2023-04-24T15:21:58;13.00;99.90
46335;DHT22;32051;48.882;9.210;2023-04-24T15:24:24;12.70;99.90
46335;DHT22;32051;48.882;9.210;2023-04-24T15:26:50;12.60;99.90
